createdAt,value
2018-07-01T00:00:41.814Z,0
2018-07-01T00:01:51.524Z,0
2018-07-01T00:03:01.229Z,0
2018-07-01T00:04:11.232Z,0
2018-07-01T00:05:21.202Z,0
2018-07-01T00:06:30.913Z,0
2018-07-01T00:07:40.917Z,0
2018-07-01T00:08:50.632Z,0
2018-07-01T00:10:00.603Z,0
2018-07-01T00:11:10.566Z,0
2018-07-01T00:12:20.548Z,0
2018-07-01T00:13:30.515Z,0
2018-07-01T00:14:40.483Z,0
2018-07-01T00:15:50.188Z,0
2018-07-01T00:17:00.177Z,0
2018-07-01T00:18:09.909Z,0
2018-07-01T00:19:19.614Z,0
2018-07-01T00:20:29.587Z,0
2018-07-01T00:21:39.546Z,0
2018-07-01T00:22:49.509Z,0
2018-07-01T00:23:59.212Z,0
2018-07-01T00:25:08.925Z,0
2018-07-01T00:26:18.892Z,0
2018-07-01T00:27:28.593Z,0
2018-07-01T00:28:38.578Z,0
2018-07-01T00:29:48.543Z,0
2018-07-01T00:30:58.521Z,0
2018-07-01T00:32:08.473Z,0
2018-07-01T00:33:18.193Z,0
2018-07-01T00:34:27.899Z,0
2018-07-01T00:35:37.860Z,0
2018-07-01T00:36:47.830Z,0
2018-07-01T00:37:57.776Z,0
2018-07-01T00:39:07.230Z,0
2018-07-01T00:40:16.679Z,0
2018-07-01T00:41:26.139Z,0
2018-07-01T00:42:36.107Z,0
2018-07-01T00:43:46.066Z,0
2018-07-01T00:44:55.518Z,0
2018-07-01T00:46:05.505Z,0
2018-07-01T00:47:15.483Z,0
2018-07-01T00:48:25.182Z,0
2018-07-01T00:49:34.893Z,0
2018-07-01T00:50:44.857Z,0
2018-07-01T00:51:54.815Z,0
2018-07-01T00:53:04.522Z,0
2018-07-01T00:54:14.485Z,0
2018-07-01T00:55:24.442Z,0
2018-07-01T00:56:34.405Z,0
2018-07-01T00:57:44.383Z,0
2018-07-01T00:58:54.338Z,0
2018-07-01T01:00:04.307Z,0
2018-07-01T01:01:14.287Z,0
2018-07-01T01:02:24.272Z,0
2018-07-01T01:03:34.243Z,0
2018-07-01T01:04:44.240Z,0
2018-07-01T01:05:53.951Z,0
2018-07-01T01:07:03.657Z,0
2018-07-01T01:08:13.368Z,0
2018-07-01T01:09:23.322Z,0
2018-07-01T01:10:33.279Z,0
2018-07-01T01:11:42.956Z,0
2018-07-01T01:12:52.663Z,0
2018-07-01T01:14:02.366Z,0
2018-07-01T01:15:12.328Z,0
2018-07-01T01:16:22.284Z,0
2018-07-01T01:17:31.997Z,0
2018-07-01T01:18:41.958Z,0
2018-07-01T01:19:51.657Z,0
2018-07-01T01:21:01.376Z,0
2018-07-01T01:22:11.355Z,0
2018-07-01T01:23:21.384Z,0
2018-07-01T01:24:31.356Z,0
2018-07-01T01:25:41.067Z,0
2018-07-01T01:26:50.799Z,0
2018-07-01T01:28:00.755Z,0
2018-07-01T01:29:10.729Z,0
2018-07-01T01:30:20.441Z,0
2018-07-01T01:31:30.152Z,0
2018-07-01T01:32:39.867Z,0
2018-07-01T01:33:49.570Z,0
2018-07-01T01:34:59.528Z,0
2018-07-01T01:36:09.491Z,0
2018-07-01T01:37:19.470Z,0
2018-07-01T01:38:29.173Z,0
2018-07-01T01:39:38.881Z,0
2018-07-01T01:40:48.841Z,0
2018-07-01T01:41:58.549Z,0
2018-07-01T01:43:08.005Z,0
2018-07-01T01:44:17.972Z,0
2018-07-01T01:45:27.934Z,0
2018-07-01T01:46:37.898Z,0
2018-07-01T01:47:47.855Z,0
2018-07-01T01:48:57.582Z,0
2018-07-01T01:50:07.543Z,0
2018-07-01T01:51:17.584Z,0
2018-07-01T01:52:27.550Z,0
2018-07-01T01:53:37.518Z,0
2018-07-01T01:54:47.494Z,0
2018-07-01T01:55:57.197Z,4
2018-07-01T01:57:06.907Z,4
2018-07-01T01:58:16.866Z,4
2018-07-01T01:59:26.573Z,0
2018-07-01T02:00:36.270Z,0
2018-07-01T02:01:46.234Z,4
2018-07-01T02:02:56.189Z,4
2018-07-01T02:04:06.144Z,4
2018-07-01T02:05:15.875Z,4
2018-07-01T02:06:25.583Z,8
2018-07-01T02:07:35.559Z,4
2018-07-01T02:08:45.259Z,4
2018-07-01T02:09:54.958Z,8
2018-07-01T02:11:04.659Z,8
2018-07-01T02:12:14.625Z,8
2018-07-01T02:13:24.334Z,12
2018-07-01T02:14:34.040Z,12
2018-07-01T02:15:43.730Z,12
2018-07-01T02:16:53.695Z,20
2018-07-01T02:18:03.652Z,20
2018-07-01T02:19:13.608Z,24
2018-07-01T02:20:23.302Z,28
2018-07-01T02:21:33.270Z,32
2018-07-01T02:22:43.236Z,36
2018-07-01T02:23:53.192Z,40
2018-07-01T02:25:03.157Z,44
2018-07-01T02:26:13.126Z,52
2018-07-01T02:27:23.083Z,60
2018-07-01T02:28:33.031Z,68
2018-07-01T02:29:42.727Z,80
2018-07-01T02:30:52.715Z,92
2018-07-01T02:32:02.706Z,104
2018-07-01T02:33:12.431Z,116
2018-07-01T02:34:22.429Z,136
2018-07-01T02:35:33.079Z,152
2018-07-01T02:36:43.279Z,168
2018-07-01T02:37:53.262Z,192
2018-07-01T02:39:03.243Z,216
2018-07-01T02:40:13.207Z,240
2018-07-01T02:41:22.664Z,268
2018-07-01T02:42:32.375Z,296
2018-07-01T02:43:42.079Z,328
2018-07-01T02:44:51.782Z,364
2018-07-01T02:46:01.486Z,400
2018-07-01T02:47:11.484Z,440
2018-07-01T02:48:21.214Z,484
2018-07-01T02:49:31.174Z,532
2018-07-01T02:50:41.156Z,580
2018-07-01T02:51:50.881Z,632
2018-07-01T02:53:00.837Z,684
2018-07-01T02:54:10.805Z,740
2018-07-01T02:55:20.774Z,804
2018-07-01T02:56:30.759Z,864
2018-07-01T02:57:40.471Z,932
2018-07-01T02:58:50.183Z,1000
2018-07-01T03:00:00.163Z,1080
2018-07-01T03:01:10.135Z,1164
2018-07-01T03:02:20.128Z,1312
2018-07-01T03:03:30.092Z,1544
2018-07-01T03:04:40.070Z,1464
2018-07-01T03:05:50.038Z,1628
2018-07-01T03:07:00.033Z,2380
2018-07-01T03:08:10.088Z,2408
2018-07-01T03:09:19.740Z,1880
2018-07-01T03:10:29.449Z,1968
2018-07-01T03:11:39.178Z,2096
2018-07-01T03:12:48.888Z,2076
2018-07-01T03:13:58.855Z,2188
2018-07-01T03:15:08.303Z,2292
2018-07-01T03:16:18.265Z,2352
2018-07-01T03:17:27.968Z,2420
2018-07-01T03:18:37.679Z,2472
2018-07-01T03:19:47.632Z,2560
2018-07-01T03:20:57.360Z,2648
2018-07-01T03:22:07.351Z,2736
2018-07-01T03:23:17.310Z,2824
2018-07-01T03:24:27.266Z,2912
2018-07-01T03:25:36.963Z,2996
2018-07-01T03:26:46.925Z,3076
2018-07-01T03:27:56.876Z,3164
2018-07-01T03:29:06.824Z,3244
2018-07-01T03:30:16.801Z,3324
2018-07-01T03:31:26.766Z,3404
2018-07-01T03:32:36.718Z,3484
2018-07-01T03:33:46.685Z,3560
2018-07-01T03:34:56.647Z,3636
2018-07-01T03:36:06.346Z,3708
2018-07-01T03:37:16.315Z,3784
2018-07-01T03:38:26.277Z,3852
2018-07-01T03:39:36.225Z,3920
2018-07-01T03:40:45.921Z,3988
2018-07-01T03:41:55.874Z,4056
2018-07-01T03:43:05.575Z,4120
2018-07-01T03:44:15.271Z,4184
2018-07-01T03:45:25.234Z,4248
2018-07-01T03:46:35.185Z,4308
2018-07-01T03:47:45.156Z,4368
2018-07-01T03:48:54.865Z,4428
2018-07-01T03:50:04.852Z,4484
2018-07-01T03:51:14.356Z,4540
2018-07-01T03:52:24.323Z,4596
2018-07-01T03:53:34.280Z,4652
2018-07-01T03:54:43.972Z,4704
2018-07-01T03:55:53.160Z,4760
2018-07-01T03:57:02.864Z,4808
2018-07-01T03:58:12.823Z,4856
2018-07-01T03:59:22.808Z,4904
2018-07-01T04:00:32.892Z,4952
2018-07-01T04:01:42.848Z,5004
2018-07-01T04:02:52.880Z,5048
2018-07-01T04:04:02.873Z,5092
2018-07-01T04:05:12.868Z,5136
2018-07-01T04:06:22.574Z,5180
2018-07-01T04:07:32.546Z,5220
2018-07-01T04:08:42.508Z,5260
2018-07-01T04:09:52.473Z,5296
2018-07-01T04:11:02.173Z,5340
2018-07-01T04:12:12.132Z,5380
2018-07-01T04:13:21.583Z,5420
2018-07-01T04:14:31.543Z,5456
2018-07-01T04:15:41.519Z,5488
2018-07-01T04:16:51.475Z,5524
2018-07-01T04:18:01.431Z,5564
2018-07-01T04:19:11.388Z,5596
2018-07-01T04:20:21.337Z,5632
2018-07-01T04:21:31.044Z,5664
2018-07-01T04:22:41.008Z,5696
2018-07-01T04:23:50.713Z,5732
2018-07-01T04:25:00.414Z,5764
2018-07-01T04:26:10.393Z,5796
2018-07-01T04:27:20.348Z,5820
2018-07-01T04:28:30.348Z,5856
2018-07-01T04:29:40.310Z,5880
2018-07-01T04:30:50.273Z,5916
2018-07-01T04:31:59.986Z,5948
2018-07-01T04:33:09.961Z,5980
2018-07-01T04:34:19.915Z,6012
2018-07-01T04:35:29.876Z,6048
2018-07-01T04:36:39.835Z,6104
2018-07-01T04:37:49.818Z,6164
2018-07-01T04:38:59.520Z,6168
2018-07-01T04:40:09.491Z,6192
2018-07-01T04:41:19.451Z,6216
2018-07-01T04:42:29.150Z,6240
2018-07-01T04:43:38.884Z,6264
2018-07-01T04:44:48.851Z,6292
2018-07-01T04:45:58.805Z,6320
2018-07-01T04:47:08.767Z,6344
2018-07-01T04:48:18.733Z,6368
2018-07-01T04:49:28.852Z,6392
2018-07-01T04:50:38.830Z,6412
2018-07-01T04:51:48.787Z,6436
2018-07-01T04:52:58.748Z,6460
2018-07-01T04:54:08.733Z,6480
2018-07-01T04:55:19.228Z,6500
2018-07-01T04:56:29.401Z,6520
2018-07-01T04:57:39.370Z,6548
2018-07-01T04:58:49.080Z,6568
2018-07-01T04:59:59.050Z,6588
2018-07-01T05:01:08.760Z,6612
2018-07-01T05:02:19.122Z,6632
2018-07-01T05:03:29.186Z,6660
2018-07-01T05:04:39.149Z,6676
2018-07-01T05:05:49.129Z,6696
2018-07-01T05:06:59.109Z,6716
2018-07-01T05:08:09.075Z,6732
2018-07-01T05:09:19.049Z,6752
2018-07-01T05:10:29.029Z,6772
2018-07-01T05:11:38.490Z,6788
2018-07-01T05:12:48.193Z,6804
2018-07-01T05:13:58.215Z,6824
2018-07-01T05:15:07.921Z,6840
2018-07-01T05:16:17.655Z,6856
2018-07-01T05:17:27.361Z,6868
2018-07-01T05:18:37.067Z,6884
2018-07-01T05:19:47.032Z,6896
2018-07-01T05:20:56.733Z,6912
2018-07-01T05:22:06.698Z,6924
2018-07-01T05:23:16.678Z,6936
2018-07-01T05:24:26.721Z,6948
2018-07-01T05:25:36.428Z,6960
2018-07-01T05:26:46.391Z,6976
2018-07-01T05:27:56.362Z,6984
2018-07-01T05:29:06.322Z,6996
2018-07-01T05:30:16.030Z,7008
2018-07-01T05:31:26.288Z,7032
2018-07-01T05:32:35.743Z,7056
2018-07-01T05:33:45.989Z,7080
2018-07-01T05:34:56.099Z,7104
2018-07-01T05:36:05.811Z,7136
2018-07-01T05:37:15.807Z,7164
2018-07-01T05:38:25.809Z,7200
2018-07-01T05:39:35.509Z,7220
2018-07-01T05:40:45.212Z,7240
2018-07-01T05:41:54.907Z,7252
2018-07-01T05:43:04.876Z,7260
2018-07-01T05:44:14.904Z,7272
2018-07-01T05:45:24.861Z,7280
2018-07-01T05:46:34.822Z,7288
2018-07-01T05:47:44.779Z,7304
2018-07-01T05:48:54.501Z,7320
2018-07-01T05:50:04.473Z,7332
2018-07-01T05:51:14.235Z,7320
2018-07-01T05:52:24.207Z,7348
2018-07-01T05:53:34.182Z,7368
2018-07-01T05:54:44.142Z,7376
2018-07-01T05:55:54.152Z,7384
2018-07-01T05:57:04.193Z,7396
2018-07-01T05:58:14.233Z,7408
2018-07-01T05:59:23.961Z,7416
2018-07-01T06:00:33.925Z,7428
2018-07-01T06:01:43.899Z,7436
2018-07-01T06:02:53.887Z,7440
2018-07-01T06:04:03.873Z,7452
2018-07-01T06:05:13.601Z,7460
2018-07-01T06:06:23.569Z,7472
2018-07-01T06:07:33.551Z,7484
2018-07-01T06:08:43.822Z,7492
2018-07-01T06:09:54.028Z,7508
2018-07-01T06:11:03.481Z,7516
2018-07-01T06:12:13.204Z,7524
2018-07-01T06:13:22.911Z,7536
2018-07-01T06:14:32.875Z,7544
2018-07-01T06:15:42.879Z,7560
2018-07-01T06:16:53.411Z,7572
2018-07-01T06:18:03.159Z,7588
2018-07-01T06:19:12.873Z,7644
2018-07-01T06:20:22.849Z,7720
2018-07-01T06:21:32.819Z,7796
2018-07-01T06:22:42.785Z,7864
2018-07-01T06:23:52.501Z,7928
2018-07-01T06:25:02.471Z,7988
2018-07-01T06:26:12.433Z,8084
2018-07-01T06:27:21.886Z,8312
2018-07-01T06:28:31.873Z,8180
2018-07-01T06:29:41.855Z,8288
2018-07-01T06:30:51.820Z,8112
2018-07-01T06:32:01.791Z,7496
2018-07-01T06:33:11.761Z,8012
2018-07-01T06:34:21.732Z,8564
2018-07-01T06:35:31.436Z,9872
2018-07-01T06:36:41.415Z,9968
2018-07-01T06:37:51.389Z,11256
2018-07-01T06:39:01.363Z,10912
2018-07-01T06:40:11.091Z,11064
2018-07-01T06:41:21.059Z,11512
2018-07-01T06:42:30.766Z,11876
2018-07-01T06:43:40.742Z,11456
2018-07-01T06:44:50.714Z,10448
2018-07-01T06:46:00.687Z,10744
2018-07-01T06:47:10.679Z,10392
2018-07-01T06:48:20.663Z,11208
2018-07-01T06:49:30.878Z,11116
2018-07-01T06:50:40.986Z,10692
2018-07-01T06:51:50.708Z,10264
2018-07-01T06:53:00.680Z,9880
2018-07-01T06:54:10.393Z,10240
2018-07-01T06:55:20.386Z,11252
2018-07-01T06:56:30.636Z,12076
2018-07-01T06:57:40.564Z,12648
2018-07-01T06:58:50.540Z,13272
2018-07-01T07:00:00.257Z,13924
2018-07-01T07:01:10.250Z,13464
2018-07-01T07:02:20.319Z,12924
2018-07-01T07:03:29.841Z,11872
2018-07-01T07:04:39.795Z,11932
2018-07-01T07:05:49.782Z,12484
2018-07-01T07:06:59.743Z,11964
2018-07-01T07:08:10.069Z,12144
2018-07-01T07:09:19.868Z,11588
2018-07-01T07:10:29.608Z,12756
2018-07-01T07:11:39.572Z,12228
2018-07-01T07:12:49.525Z,12532
2018-07-01T07:13:59.497Z,11936
2018-07-01T07:15:09.483Z,11940
2018-07-01T07:16:19.085Z,11828
2018-07-01T07:17:29.064Z,11452
2018-07-01T07:18:38.774Z,11768
2018-07-01T07:19:48.772Z,11872
2018-07-01T07:20:58.474Z,12048
2018-07-01T07:22:08.436Z,11508
2018-07-01T07:23:18.412Z,11020
2018-07-01T07:24:28.497Z,10612
2018-07-01T07:25:38.560Z,10580
2018-07-01T07:26:48.558Z,10656
2018-07-01T07:27:57.997Z,11200
2018-07-01T07:29:08.001Z,11572
2018-07-01T07:30:17.979Z,10916
2018-07-01T07:31:27.962Z,12104
2018-07-01T07:32:37.417Z,13376
2018-07-01T07:33:47.403Z,13576
2018-07-01T07:34:57.369Z,13652
2018-07-01T07:36:07.091Z,12996
2018-07-01T07:37:17.077Z,14884
2018-07-01T07:38:27.058Z,15172
2018-07-01T07:39:37.037Z,15728
2018-07-01T07:40:46.748Z,15176
2018-07-01T07:41:56.724Z,16492
2018-07-01T07:43:06.706Z,17232
2018-07-01T07:44:16.418Z,15732
2018-07-01T07:45:26.523Z,16276
2018-07-01T07:46:35.981Z,17580
2018-07-01T07:47:45.944Z,19392
2018-07-01T07:48:55.903Z,19104
2018-07-01T07:50:05.872Z,20384
2018-07-01T07:51:15.592Z,19424
2018-07-01T07:52:25.902Z,16380
2018-07-01T07:53:35.611Z,15284
2018-07-01T07:54:45.325Z,16476
2018-07-01T07:55:55.060Z,16228
2018-07-01T07:57:04.776Z,15040
2018-07-01T07:58:14.758Z,15032
2018-07-01T07:59:24.744Z,15052
2018-07-01T08:00:34.718Z,14364
2018-07-01T08:01:44.433Z,13620
2018-07-01T08:02:54.140Z,17104
2018-07-01T08:04:04.122Z,15228
2018-07-01T08:05:14.093Z,14812
2018-07-01T08:06:24.079Z,16872
2018-07-01T08:07:33.280Z,17376
2018-07-01T08:08:43.267Z,17564
2018-07-01T08:09:52.987Z,15944
2018-07-01T08:11:02.693Z,16348
2018-07-01T08:12:12.677Z,16592
2018-07-01T08:13:22.638Z,15796
2018-07-01T08:14:32.616Z,16508
2018-07-01T08:15:42.600Z,18944
2018-07-01T08:16:52.569Z,17032
2018-07-01T08:18:02.544Z,15464
2018-07-01T08:19:12.248Z,15020
2018-07-01T08:20:22.234Z,16624
2018-07-01T08:21:32.199Z,16604
2018-07-01T08:22:42.160Z,16412
2018-07-01T08:23:52.137Z,16328
2018-07-01T08:25:02.111Z,15588
2018-07-01T08:26:12.140Z,15904
2018-07-01T08:27:22.151Z,15852
2018-07-01T08:28:32.121Z,17532
2018-07-01T08:29:42.095Z,18180
2018-07-01T08:30:52.057Z,15808
2018-07-01T08:32:02.050Z,16340
2018-07-01T08:33:11.782Z,15004
2018-07-01T08:34:21.536Z,15732
2018-07-01T08:35:31.505Z,15348
2018-07-01T08:36:41.482Z,14616
2018-07-01T08:37:51.453Z,25888
2018-07-01T08:39:00.907Z,47552
2018-07-01T08:40:10.951Z,52896
2018-07-01T08:41:21.008Z,43456
2018-07-01T08:42:30.972Z,57760
2018-07-01T08:43:40.966Z,52224
2018-07-01T08:44:50.929Z,15280
2018-07-01T08:46:00.893Z,57408
2018-07-01T08:47:10.644Z,62912
2018-07-01T08:48:20.643Z,61696
2018-07-01T08:49:30.618Z,25568
2018-07-01T08:50:40.580Z,59808
2018-07-01T08:51:50.562Z,60544
2018-07-01T08:53:00.280Z,60800
2018-07-01T08:54:10.258Z,62624
2018-07-01T08:55:20.225Z,63328
2018-07-01T08:56:30.202Z,63072
2018-07-01T08:57:39.914Z,62176
2018-07-01T08:58:49.622Z,63200
2018-07-01T08:59:59.600Z,63808
2018-07-01T09:01:09.563Z,65856
2018-07-01T09:02:19.550Z,65568
2018-07-01T09:03:29.513Z,66144
2018-07-01T09:04:39.004Z,67136
2018-07-01T09:05:48.993Z,69760
2018-07-01T09:06:58.977Z,74080
2018-07-01T09:08:08.701Z,72224
2018-07-01T09:09:18.405Z,74752
2018-07-01T09:10:27.622Z,72032
2018-07-01T09:11:37.600Z,74784
2018-07-01T09:12:47.568Z,75136
2018-07-01T09:13:57.289Z,73312
2018-07-01T09:15:07.271Z,71104
2018-07-01T09:16:17.001Z,68736
2018-07-01T09:17:27.134Z,72032
2018-07-01T09:18:37.120Z,71488
2018-07-01T09:19:46.589Z,75200
2018-07-01T09:20:56.567Z,70944
2018-07-01T09:22:06.545Z,73024
2018-07-01T09:23:16.528Z,82080
2018-07-01T09:24:26.520Z,84128
2018-07-01T09:25:36.504Z,75040
2018-07-01T09:26:46.497Z,41216
2018-07-01T09:27:56.478Z,29856
2018-07-01T09:29:06.355Z,24128
2018-07-01T09:30:16.566Z,23712
2018-07-01T09:31:26.557Z,86624
2018-07-01T09:32:36.307Z,29408
2018-07-01T09:33:46.313Z,20928
2018-07-01T09:34:56.035Z,22208
2018-07-01T09:36:05.758Z,90272
2018-07-01T09:37:15.771Z,90464
2018-07-01T09:38:25.753Z,91264
2018-07-01T09:39:35.744Z,43296
2018-07-01T09:40:45.734Z,36064
2018-07-01T09:41:55.711Z,95424
2018-07-01T09:43:05.690Z,25824
2018-07-01T09:44:15.673Z,24256
2018-07-01T09:45:25.132Z,22464
2018-07-01T09:46:34.854Z,21920
2018-07-01T09:47:44.847Z,21824
2018-07-01T09:48:54.582Z,34432
2018-07-01T09:50:04.557Z,29152
2018-07-01T09:51:14.027Z,21728
2018-07-01T09:52:23.764Z,19840
2018-07-01T09:53:33.238Z,91936
2018-07-01T09:54:42.977Z,95424
2018-07-01T09:55:52.452Z,93696
2018-07-01T09:57:02.439Z,24128
2018-07-01T09:58:12.494Z,89216
2018-07-01T09:59:22.234Z,92160
2018-07-01T10:00:32.223Z,95104
2018-07-01T10:01:41.939Z,25792
2018-07-01T10:02:51.935Z,23008
2018-07-01T10:04:01.647Z,23328
2018-07-01T10:05:11.637Z,24288
2018-07-01T10:06:21.350Z,24128
2018-07-01T10:07:31.337Z,21792
2018-07-01T10:08:41.071Z,21600
2018-07-01T10:09:51.109Z,22112
2018-07-01T10:11:01.082Z,21696
2018-07-01T10:12:10.683Z,20832
2018-07-01T10:13:20.682Z,104608
2018-07-01T10:14:30.651Z,104352
2018-07-01T10:15:40.622Z,100288
2018-07-01T10:16:50.614Z,98816
2018-07-01T10:18:00.607Z,105856
2018-07-01T10:19:10.589Z,100864
2018-07-01T10:20:20.048Z,94304
2018-07-01T10:21:29.771Z,103776
2018-07-01T10:22:39.747Z,105664
2018-07-01T10:23:49.733Z,105120
2018-07-01T10:24:59.705Z,109792
2018-07-01T10:26:09.448Z,106080
2018-07-01T10:27:19.190Z,112480
2018-07-01T10:28:29.185Z,113952
2018-07-01T10:29:39.176Z,116704
2018-07-01T10:30:49.179Z,110400
2018-07-01T10:31:59.204Z,108576
2018-07-01T10:33:09.191Z,116448
2018-07-01T10:34:18.927Z,119392
2018-07-01T10:35:28.922Z,124096
2018-07-01T10:36:38.909Z,113056
2018-07-01T10:37:48.635Z,106304
2018-07-01T10:38:58.634Z,114752
2018-07-01T10:40:08.465Z,118272
2018-07-01T10:41:18.494Z,118656
2018-07-01T10:42:28.492Z,117760
2018-07-01T10:43:38.497Z,116800
2018-07-01T10:44:48.225Z,124960
2018-07-01T10:45:58.434Z,30432
2018-07-01T10:47:08.410Z,68320
2018-07-01T10:48:18.386Z,41600
2018-07-01T10:49:28.371Z,41632
2018-07-01T10:50:38.087Z,71584
2018-07-01T10:51:48.714Z,37024
2018-07-01T10:52:58.690Z,38016
2018-07-01T10:54:08.664Z,29248
2018-07-01T10:55:18.642Z,28128
2018-07-01T10:56:28.626Z,28096
2018-07-01T10:57:38.847Z,28608
2018-07-01T10:58:48.889Z,34752
2018-07-01T10:59:58.873Z,34656
2018-07-01T11:01:08.583Z,40896
2018-07-01T11:02:18.579Z,40544
2018-07-01T11:03:28.582Z,44544
2018-07-01T11:04:38.564Z,41152
2018-07-01T11:05:48.286Z,37088
2018-07-01T11:06:58.304Z,50688
2018-07-01T11:08:08.245Z,37760
2018-07-01T11:09:18.224Z,35808
2018-07-01T11:10:27.963Z,36704
2018-07-01T11:11:38.005Z,41440
2018-07-01T11:12:48.130Z,46464
2018-07-01T11:13:58.118Z,128480
2018-07-01T11:15:08.095Z,139136
2018-07-01T11:16:17.830Z,44768
2018-07-01T11:17:27.812Z,40928
2018-07-01T11:18:37.279Z,35552
2018-07-01T11:19:47.005Z,32928
2018-07-01T11:20:56.985Z,28576
2018-07-01T11:22:06.984Z,28288
2018-07-01T11:23:16.992Z,42688
2018-07-01T11:24:26.968Z,132352
2018-07-01T11:25:36.690Z,139456
2018-07-01T11:26:47.043Z,130816
2018-07-01T11:27:57.406Z,28736
2018-07-01T11:29:07.151Z,25184
2018-07-01T11:30:17.135Z,26464
2018-07-01T11:31:26.864Z,41344
2018-07-01T11:32:36.362Z,135136
2018-07-01T11:33:46.392Z,133440
2018-07-01T11:34:56.429Z,97696
2018-07-01T11:36:06.470Z,137024
2018-07-01T11:37:16.194Z,50720
2018-07-01T11:38:26.253Z,39264
2018-07-01T11:39:35.996Z,82848
2018-07-01T11:40:45.993Z,133312
2018-07-01T11:41:55.988Z,135552
2018-07-01T11:43:05.979Z,57568
2018-07-01T11:44:15.961Z,142528
2018-07-01T11:45:25.950Z,139200
2018-07-01T11:46:35.955Z,130688
2018-07-01T11:47:45.936Z,54432
2018-07-01T11:48:55.920Z,49408
2018-07-01T11:50:05.637Z,123200
2018-07-01T11:51:15.370Z,140672
2018-07-01T11:52:25.538Z,35584
2018-07-01T11:53:35.375Z,31616
2018-07-01T11:54:45.352Z,30976
2018-07-01T11:55:55.101Z,30848
2018-07-01T11:57:05.079Z,34656
2018-07-01T11:58:15.277Z,153408
2018-07-01T11:59:25.265Z,92960
2018-07-01T12:00:35.243Z,76640
2018-07-01T12:01:45.257Z,72928
2018-07-01T12:02:55.285Z,47744
2018-07-01T12:04:05.278Z,45472
2018-07-01T12:05:24.450Z,72416
2018-07-01T12:06:34.556Z,118816
2018-07-01T12:07:44.275Z,71200
2018-07-01T12:08:54.250Z,141888
2018-07-01T12:10:04.254Z,145472
2018-07-01T12:11:14.230Z,145376
2018-07-01T12:12:23.972Z,136160
2018-07-01T12:13:33.696Z,132256
2018-07-01T12:14:43.697Z,136672
2018-07-01T12:15:53.724Z,139424
2018-07-01T12:17:03.711Z,136384
2018-07-01T12:18:13.444Z,43616
2018-07-01T12:19:23.419Z,82464
2018-07-01T12:20:33.404Z,134272
2018-07-01T12:21:43.392Z,137312
2018-07-01T12:22:53.381Z,153632
2018-07-01T12:24:03.362Z,135008
2018-07-01T12:25:13.353Z,119744
2018-07-01T12:26:23.381Z,36320
2018-07-01T12:27:33.386Z,48704
2018-07-01T12:28:43.571Z,114304
2018-07-01T12:29:53.607Z,37536
2018-07-01T12:31:03.336Z,55712
2018-07-01T12:32:13.075Z,34848
2018-07-01T12:33:22.795Z,34880
2018-07-01T12:34:32.284Z,143904
2018-07-01T12:35:42.268Z,145984
2018-07-01T12:36:51.991Z,146720
2018-07-01T12:38:01.975Z,139552
2018-07-01T12:39:11.973Z,141472
2018-07-01T12:40:21.967Z,147104
2018-07-01T12:41:31.966Z,144064
2018-07-01T12:42:41.705Z,136992
2018-07-01T12:43:51.429Z,139488
2018-07-01T12:45:01.406Z,147008
2018-07-01T12:46:10.876Z,150080
2018-07-01T12:47:20.597Z,149888
2018-07-01T12:48:30.580Z,151104
2018-07-01T12:49:40.307Z,149472
2018-07-01T12:50:50.305Z,148640
2018-07-01T12:52:00.278Z,143840
2018-07-01T12:53:10.014Z,139808
2018-07-01T12:54:20.006Z,145472
2018-07-01T12:55:29.470Z,151168
2018-07-01T12:56:39.601Z,154336
2018-07-01T12:57:49.388Z,158688
2018-07-01T12:58:59.158Z,48352
2018-07-01T13:00:09.145Z,38688
2018-07-01T13:01:18.889Z,74816
2018-07-01T13:02:29.006Z,40864
2018-07-01T13:03:39.135Z,40992
2018-07-01T13:04:49.114Z,41216
2018-07-01T13:05:58.837Z,41664
2018-07-01T13:07:08.625Z,51584
2018-07-01T13:08:18.672Z,52704
2018-07-01T13:09:28.515Z,68864
2018-07-01T13:10:38.496Z,56800
2018-07-01T13:11:48.508Z,147392
2018-07-01T13:12:58.502Z,46944
2018-07-01T13:14:08.493Z,46784
2018-07-01T13:15:17.970Z,48448
2018-07-01T13:16:27.952Z,43008
2018-07-01T13:17:37.444Z,40768
2018-07-01T13:18:47.451Z,40032
2018-07-01T13:19:57.451Z,40608
2018-07-01T13:21:07.439Z,43008
2018-07-01T13:22:17.445Z,47136
2018-07-01T13:23:27.429Z,47744
2018-07-01T13:24:37.406Z,48352
2018-07-01T13:25:47.496Z,53856
2018-07-01T13:26:57.237Z,48128
2018-07-01T13:28:06.981Z,46784
2018-07-01T13:29:16.987Z,46592
2018-07-01T13:30:26.710Z,45536
2018-07-01T13:31:36.495Z,43424
2018-07-01T13:32:46.496Z,43296
2018-07-01T13:33:56.473Z,42816
2018-07-01T13:35:06.203Z,44864
2018-07-01T13:36:16.183Z,108288
2018-07-01T13:37:25.925Z,62432
2018-07-01T13:38:35.908Z,66944
2018-07-01T13:39:45.624Z,65824
2018-07-01T13:40:55.356Z,99264
2018-07-01T13:42:05.093Z,125664
2018-07-01T13:43:14.812Z,68512
2018-07-01T13:44:24.537Z,66688
2018-07-01T13:45:34.517Z,171840
2018-07-01T13:46:43.711Z,175488
2018-07-01T13:47:53.703Z,121888
2018-07-01T13:49:03.674Z,117408
2018-07-01T13:50:13.683Z,138752
2018-07-01T13:51:23.402Z,60096
2018-07-01T13:52:33.386Z,60192
2018-07-01T13:53:43.110Z,54688
2018-07-01T13:54:53.101Z,53440
2018-07-01T13:56:03.016Z,53376
2018-07-01T13:57:13.450Z,52224
2018-07-01T13:58:23.507Z,52000
2018-07-01T13:59:33.491Z,47808
2018-07-01T14:00:43.349Z,47648
2018-07-01T14:01:53.210Z,49824
2018-07-01T14:03:03.195Z,68160
2018-07-01T14:04:13.605Z,60960
2018-07-01T14:05:23.826Z,107072
2018-07-01T14:06:34.044Z,165088
2018-07-01T14:07:44.122Z,157504
2018-07-01T14:08:54.291Z,141792
2018-07-01T14:10:03.759Z,137664
2018-07-01T14:11:13.759Z,124352
2018-07-01T14:12:23.755Z,129280
2018-07-01T14:13:33.477Z,131808
2018-07-01T14:14:43.192Z,111296
2018-07-01T14:15:53.168Z,112320
2018-07-01T14:17:03.162Z,122880
2018-07-01T14:18:13.145Z,114880
2018-07-01T14:19:23.131Z,121312
2018-07-01T14:20:33.108Z,123168
2018-07-01T14:21:42.852Z,128320
2018-07-01T14:22:52.572Z,134944
2018-07-01T14:24:02.300Z,108544
2018-07-01T14:25:12.027Z,133216
2018-07-01T14:26:21.487Z,134496
2018-07-01T14:27:30.949Z,80832
2018-07-01T14:28:40.690Z,57024
2018-07-01T14:29:51.056Z,131616
2018-07-01T14:31:01.051Z,127744
2018-07-01T14:32:11.045Z,122784
2018-07-01T14:33:20.885Z,138112
2018-07-01T14:34:30.618Z,71968
2018-07-01T14:35:41.029Z,54752
2018-07-01T14:36:50.668Z,43552
2018-07-01T14:38:00.646Z,51200
2018-07-01T14:39:10.388Z,45792
2018-07-01T14:40:20.366Z,43616
2018-07-01T14:41:30.359Z,41152
2018-07-01T14:42:40.100Z,40128
2018-07-01T14:43:50.040Z,35968
2018-07-01T14:44:59.763Z,32640
2018-07-01T14:46:09.766Z,29472
2018-07-01T14:47:19.766Z,27744
2018-07-01T14:48:29.763Z,26528
2018-07-01T14:49:39.748Z,25664
2018-07-01T14:50:49.724Z,25152
2018-07-01T14:51:59.705Z,25280
2018-07-01T14:53:09.705Z,26272
2018-07-01T14:54:19.717Z,28256
2018-07-01T14:55:29.702Z,37824
2018-07-01T14:56:39.411Z,100352
2018-07-01T14:57:49.397Z,38208
2018-07-01T14:58:59.375Z,38784
2018-07-01T15:00:08.847Z,36416
2018-07-01T15:01:18.737Z,36480
2018-07-01T15:02:28.826Z,126560
2018-07-01T15:03:38.848Z,125408
2018-07-01T15:04:48.574Z,109856
2018-07-01T15:05:58.544Z,86816
2018-07-01T15:07:08.526Z,43584
2018-07-01T15:08:18.526Z,31872
2018-07-01T15:09:28.525Z,34496
2018-07-01T15:10:38.521Z,101472
2018-07-01T15:11:48.501Z,120000
2018-07-01T15:12:58.507Z,118912
2018-07-01T15:14:08.220Z,116352
2018-07-01T15:15:17.942Z,116992
2018-07-01T15:16:27.555Z,108288
2018-07-01T15:17:37.346Z,118400
2018-07-01T15:18:47.059Z,119904
2018-07-01T15:19:57.049Z,113024
2018-07-01T15:21:07.036Z,46496
2018-07-01T15:22:17.056Z,82240
2018-07-01T15:23:27.017Z,111392